Time;durP1;ratioP1;P1;durP2;ratioP2;P2;SDS_P1;SDS_P2;PMS_P1;PMS_P2;Temp;Humidity;BMP_temperature;BMP_pressure;BME280_temperature;BME280_humidity;BME280_pressure;Samples;Min_cycle;Max_cycle;Signal;HPM_P1;HPM_P2
2023/01/30 00:01:40;;;;;;;0.65;0.65;;;;;;;-4.51;96.42;98374.59;5015839;28;20415;-84
2023/01/30 00:04:08;;;;;;;0.70;0.70;;;;;;;-4.48;96.83;98390.06;5016022;28;20045;-84
2023/01/30 00:06:35;;;;;;;0.73;0.73;;;;;;;-4.48;96.85;98380.38;5016099;28;20045;-85
2023/01/30 00:09:02;;;;;;;0.88;0.88;;;;;;;-4.44;97.03;98371.13;5033946;28;20132;-84
2023/01/30 00:11:32;;;;;;;0.98;0.98;;;;;;;-4.44;97.21;98365.88;5033373;28;20076;-84
2023/01/30 00:14:02;;;;;;;0.80;0.80;;;;;;;-4.47;97.38;98376.72;5033180;28;20083;-83
2023/01/30 00:16:34;;;;;;;0.90;0.90;;;;;;;-4.52;97.52;98384.31;5033398;28;20103;-83
2023/01/30 00:19:02;;;;;;;0.63;0.63;;;;;;;-4.55;97.38;98379.38;5033135;28;20064;-83
2023/01/30 00:21:33;;;;;;;0.70;0.70;;;;;;;-4.52;97.76;98362.41;5033280;28;20468;-83
2023/01/30 00:24:00;;;;;;;0.75;0.75;;;;;;;-4.47;98.00;98366.19;5015310;28;20083;-84
2023/01/30 00:26:27;;;;;;;1.00;1.00;;;;;;;-4.50;98.05;98356.00;5032920;28;20045;-82
2023/01/30 00:28:54;;;;;;;0.60;0.60;;;;;;;-4.52;97.99;98355.34;5015352;28;20076;-82
2023/01/30 00:31:21;;;;;;;0.93;0.93;;;;;;;-4.47;98.19;98347.75;5015194;28;20048;-85
2023/01/30 00:33:52;;;;;;;0.80;0.80;;;;;;;-4.43;98.03;98338.56;5033964;28;20132;-84
2023/01/30 00:36:22;;;;;;;0.65;0.65;;;;;;;-4.44;98.10;98328.16;5033397;28;20061;-84
2023/01/30 00:38:49;;;;;;;0.68;0.68;;;;;;;-4.43;98.27;98330.66;5033119;28;20045;-83
2023/01/30 00:41:17;;;;;;;0.63;0.63;;;;;;;-4.41;98.13;98336.56;5015130;28;20076;-84
2023/01/30 00:49:18;;;;;;;0.70;0.70;;;;;;;-4.44;97.70;98322.91;5028744;28;20050;-83
2023/01/30 00:51:46;;;;;;;0.95;0.95;;;;;;;-4.41;97.75;98323.38;5033465;28;20053;-84
2023/01/30 00:54:13;;;;;;;0.80;0.80;;;;;;;-4.45;97.40;98322.09;5035512;28;20061;-86
2023/01/30 00:56:40;;;;;;;0.80;0.80;;;;;;;-4.45;97.68;98334.44;5033857;28;20045;-83
2023/01/30 00:59:07;;;;;;;0.80;0.80;;;;;;;-4.47;97.88;98318.78;5032461;28;20073;-84
2023/01/30 01:01:34;;;;;;;0.65;0.65;;;;;;;-4.46;98.02;98314.34;5032801;28;20045;-84
2023/01/30 01:04:01;;;;;;;0.77;0.77;;;;;;;-4.47;97.95;98313.53;5014714;28;20107;-83
2023/01/30 01:06:31;;;;;;;0.75;0.75;;;;;;;-4.47;97.83;98312.69;5032293;28;20052;-84
2023/01/30 01:08:58;;;;;;;0.70;0.70;;;;;;;-4.46;98.35;98320.41;5032507;28;20049;-84
2023/01/30 01:11:27;;;;;;;0.60;0.60;;;;;;;-4.47;98.40;98310.06;5014145;28;20059;-84
2023/01/30 01:13:57;;;;;;;0.60;0.60;;;;;;;-4.51;98.35;98306.94;5014566;28;20416;-83
2023/01/30 01:16:26;;;;;;;0.90;0.90;;;;;;;-4.53;98.39;98316.81;5031775;28;20052;-83
2023/01/30 01:18:53;;;;;;;1.00;1.00;;;;;;;-4.52;98.58;98309.75;5031974;28;20053;-83
2023/01/30 01:21:21;;;;;;;0.98;0.98;;;;;;;-4.49;98.49;98312.84;5031957;28;20052;-83
2023/01/30 01:23:56;;;;;;;1.00;1.00;;;;;;;-4.50;98.50;98311.22;5033052;28;20045;-84
2023/01/30 01:26:24;;;;;;;0.90;0.90;;;;;;;-4.50;98.32;98298.06;5034487;28;20073;-84
2023/01/30 01:28:56;;;;;;;0.82;0.82;;;;;;;-4.47;98.20;98291.63;5032161;28;20041;-82
2023/01/30 01:31:23;;;;;;;0.73;0.73;;;;;;;-4.47;98.19;98289.81;5031596;28;20050;-84
2023/01/30 01:33:51;;;;;;;0.80;0.80;;;;;;;-4.49;97.89;98289.16;5031738;28;20041;-83
2023/01/30 01:36:19;;;;;;;1.10;1.10;;;;;;;-4.47;98.06;98281.91;5013695;28;20059;-83
2023/01/30 01:39:08;;;;;;;1.00;1.00;;;;;;;-4.47;97.83;98274.00;5031557;28;20057;-84
2023/01/30 01:41:35;;;;;;;0.60;0.60;;;;;;;-4.44;97.82;98276.31;5014122;28;20056;-83
2023/01/30 01:44:12;;;;;;;0.80;0.80;;;;;;;-4.44;97.52;98268.41;5013921;28;20060;-84
2023/01/30 01:46:47;;;;;;;0.80;0.80;;;;;;;-4.43;97.23;98266.59;5031715;28;20064;-83
2023/01/30 01:49:20;;;;;;;0.80;0.80;;;;;;;-4.45;97.37;98252.78;5013183;28;20116;-83
2023/01/30 01:51:54;;;;;;;0.80;0.80;;;;;;;-4.46;97.25;98249.31;4997712;28;20181;-83
2023/01/30 01:54:41;;;;;;;1.13;1.13;;;;;;;-4.45;97.21;98247.50;5013528;28;20061;-83
2023/01/30 01:57:21;;;;;;;0.90;0.90;;;;;;;-4.41;96.61;98241.72;5030984;28;20053;-83
2023/01/30 01:59:51;;;;;;;0.80;0.80;;;;;;;-4.46;96.77;98230.88;5031461;28;20062;-83
2023/01/30 02:02:19;;;;;;;0.70;0.70;;;;;;;-4.43;96.44;98241.09;5013341;28;20117;-83
2023/01/30 02:05:01;;;;;;;0.75;0.75;;;;;;;-4.45;96.32;98237.78;5031057;28;20084;-82
2023/01/30 02:07:38;;;;;;;0.73;0.73;;;;;;;-4.48;96.50;98232.88;4999412;28;20099;-82
2023/01/30 02:10:29;;;;;;;0.90;0.90;;;;;;;-4.43;96.66;98230.56;5013308;28;20041;-83
2023/01/30 02:12:56;;;;;;;0.77;0.77;;;;;;;-4.44;96.50;98217.53;4997070;28;20065;-83
2023/01/30 02:15:23;;;;;;;1.10;1.10;;;;;;;-4.42;96.34;98232.19;5013232;28;20187;-84
2023/01/30 02:17:53;;;;;;;0.82;0.82;;;;;;;-4.42;96.06;98221.66;5013718;28;20050;-82
2023/01/30 02:20:26;;;;;;;0.90;0.90;;;;;;;-4.42;95.80;98212.94;5013139;28;20049;-83
2023/01/30 02:23:25;;;;;;;0.98;0.98;;;;;;;-4.40;95.50;98216.22;5030727;28;20053;-82
2023/01/30 02:26:20;;;;;;;0.70;0.70;;;;;;;-4.43;95.35;98206.00;5014116;28;20077;-82
2023/01/30 02:28:48;;;;;;;0.65;0.65;;;;;;;-4.47;95.33;98205.53;5009688;28;20061;-83
2023/01/30 02:31:32;;;;;;;0.73;0.73;;;;;;;-4.45;95.35;98211.47;4993478;28;20061;-82
2023/01/30 02:34:23;;;;;;;0.80;0.80;;;;;;;-4.47;95.29;98208.16;5010306;28;20145;-83
2023/01/30 02:37:03;;;;;;;0.82;0.82;;;;;;;-4.48;95.43;98198.63;5011560;28;20437;-83
2023/01/30 02:39:40;;;;;;;0.80;0.80;;;;;;;-4.46;95.49;98199.25;4994099;28;20056;-83
2023/01/30 02:42:13;;;;;;;1.00;1.00;;;;;;;-4.48;95.50;98195.16;4977010;28;20050;-84
2023/01/30 02:44:48;;;;;;;0.90;0.90;;;;;;;-4.46;95.31;98194.00;4993693;28;20081;-83
2023/01/30 02:47:45;;;;;;;1.10;1.10;;;;;;;-4.45;95.26;98179.84;4993125;28;20056;-83
2023/01/30 02:50:18;;;;;;;0.70;0.70;;;;;;;-4.47;95.16;98176.56;4993199;28;20137;-83
2023/01/30 02:52:46;;;;;;;0.88;0.88;;;;;;;-4.44;95.04;98178.84;5010325;28;20751;-83
2023/01/30 02:55:19;;;;;;;0.80;0.80;;;;;;;-4.44;94.92;98178.03;4991867;28;20100;-82
2023/01/30 02:57:50;;;;;;;0.80;0.80;;;;;;;-4.44;94.92;98170.94;4992903;28;20053;-82
2023/01/30 03:00:32;;;;;;;0.80;0.80;;;;;;;-4.45;94.83;98169.31;4992859;28;20489;-82
2023/01/30 03:03:49;;;;;;;1.00;1.00;;;;;;;-4.41;94.86;98167.16;5025525;28;20140;-83
2023/01/30 03:06:25;;;;;;;0.98;0.98;;;;;;;-4.47;94.85;98166.03;4955255;28;20101;-83
2023/01/30 03:09:11;;;;;;;0.70;0.70;;;;;;;-4.45;95.13;98152.69;4952632;28;20047;-81
2023/01/30 03:12:17;;;;;;;1.02;1.02;;;;;;;-4.44;94.95;98141.16;4952567;28;20058;-82
2023/01/30 03:14:53;;;;;;;0.95;0.95;;;;;;;-4.42;94.93;98150.53;4877132;29;20072;-81
2023/01/30 03:17:22;;;;;;;0.70;0.70;;;;;;;-4.44;94.83;98120.91;4876803;29;20067;-81
2023/01/30 03:19:52;;;;;;;0.80;0.80;;;;;;;-4.48;94.92;98127.50;4877595;29;20534;-83
2023/01/30 03:22:20;;;;;;;0.93;0.93;;;;;;;-4.46;95.03;98129.97;4892837;29;20112;-84
2023/01/30 03:24:48;;;;;;;0.60;0.60;;;;;;;-4.46;94.82;98125.50;4877662;29;20052;-82
2023/01/30 03:27:17;;;;;;;0.90;0.90;;;;;;;-4.48;94.68;98118.78;4877359;29;20505;-82
2023/01/30 03:29:46;;;;;;;0.70;0.70;;;;;;;-4.50;95.00;98118.97;4892555;29;20060;-82
2023/01/30 03:32:15;;;;;;;0.60;0.60;;;;;;;-4.50;94.95;98121.59;4876721;29;20063;-83
2023/01/30 03:34:44;;;;;;;0.80;0.80;;;;;;;-4.48;95.22;98122.25;4892865;29;20053;-83
2023/01/30 03:37:11;;;;;;;0.70;0.70;;;;;;;-4.48;95.11;98116.13;4892402;29;20528;-81
2023/01/30 03:39:39;;;;;;;0.80;0.80;;;;;;;-4.52;94.88;98110.41;4876750;29;20182;-83
2023/01/30 03:42:12;;;;;;;0.70;0.70;;;;;;;-4.52;94.99;98102.50;4889758;29;20059;-81
2023/01/30 03:44:40;;;;;;;0.80;0.80;;;;;;;-4.51;95.07;98101.50;4934393;29;20082;-84
2023/01/30 03:47:07;;;;;;;0.80;0.80;;;;;;;-4.46;95.34;98104.44;4933310;29;20063;-81
2023/01/30 03:49:34;;;;;;;0.90;0.90;;;;;;;-4.42;95.26;98092.59;4933432;29;20055;-81
2023/01/30 03:52:01;;;;;;;0.70;0.70;;;;;;;-4.46;94.72;98088.63;5004586;28;20376;-83
2023/01/30 03:54:28;;;;;;;0.60;0.60;;;;;;;-4.47;94.45;98083.56;5009512;28;20200;-82
2023/01/30 03:56:56;;;;;;;0.80;0.80;;;;;;;-4.47;94.71;98089.63;5009283;28;20129;-83
2023/01/30 03:59:24;;;;;;;0.70;0.70;;;;;;;-4.48;94.58;98082.75;5026440;28;20046;-81
2023/01/30 04:01:59;;;;;;;0.77;0.77;;;;;;;-4.43;94.64;98088.31;4992399;28;20095;-82
2023/01/30 04:04:28;;;;;;;0.70;0.70;;;;;;;-4.51;94.41;98077.78;5008305;28;20149;-83
2023/01/30 04:06:58;;;;;;;0.70;0.70;;;;;;;-4.45;94.47;98079.75;5027337;28;20413;-80
2023/01/30 04:09:27;;;;;;;0.60;0.60;;;;;;;-4.46;94.35;98067.56;5011507;28;20060;-82
2023/01/30 04:11:54;;;;;;;0.70;0.70;;;;;;;-4.48;94.26;98063.47;5012833;28;20052;-81
2023/01/30 04:14:21;;;;;;;0.63;0.63;;;;;;;-4.44;94.06;98062.13;5015126;28;20048;-82
2023/01/30 04:17:09;;;;;;;0.70;0.70;;;;;;;-4.47;93.86;98044.88;5018789;28;20152;-82
2023/01/30 04:19:44;;;;;;;0.65;0.65;;;;;;;-4.43;94.05;98045.31;5032810;28;20050;-81
2023/01/30 04:22:15;;;;;;;0.70;0.70;;;;;;;-4.41;93.77;98044.16;5014891;28;20057;-81
2023/01/30 04:24:45;;;;;;;0.82;0.82;;;;;;;-4.42;93.38;98028.56;5015010;28;20385;-84
2023/01/30 04:27:13;;;;;;;0.80;0.80;;;;;;;-4.40;93.49;98039.75;5014568;28;20080;-81
2023/01/30 04:29:56;;;;;;;0.73;0.73;;;;;;;-4.41;93.53;98048.63;5014352;28;20076;-82
2023/01/30 04:32:25;;;;;;;0.90;0.90;;;;;;;-4.41;93.19;98038.91;5014499;28;20466;-81
2023/01/30 04:34:56;;;;;;;0.65;0.65;;;;;;;-4.46;93.29;98030.69;4982185;28;20570;-83
2023/01/30 04:37:25;;;;;;;0.88;0.88;;;;;;;-4.52;93.24;98026.13;5032184;28;20111;-82
2023/01/30 04:39:52;;;;;;;0.90;0.90;;;;;;;-4.42;93.34;98032.00;5014464;28;20500;-82
2023/01/30 04:42:20;;;;;;;0.73;0.73;;;;;;;-4.43;93.03;98019.00;5031952;28;20552;-83
2023/01/30 04:45:07;;;;;;;0.70;0.70;;;;;;;-4.46;92.97;98014.06;5033048;28;20492;-83
2023/01/30 04:47:34;;;;;;;0.60;0.60;;;;;;;-4.47;92.92;98015.06;5014990;28;20420;-82
2023/01/30 04:50:02;;;;;;;0.80;0.80;;;;;;;-4.44;92.87;98018.16;5014831;28;20504;-82
2023/01/30 04:52:29;;;;;;;0.70;0.70;;;;;;;-4.46;93.00;98006.97;5014593;28;20053;-82
2023/01/30 04:54:57;;;;;;;0.70;0.70;;;;;;;-4.46;92.90;97998.28;4998193;28;20060;-82
2023/01/30 04:57:24;;;;;;;0.70;0.70;;;;;;;-4.47;92.77;98002.72;5014306;28;20463;-82
2023/01/30 04:59:53;;;;;;;0.70;0.70;;;;;;;-4.47;92.75;97999.28;5014283;28;20132;-82
2023/01/30 05:02:20;;;;;;;0.80;0.80;;;;;;;-4.45;92.98;98000.75;5013973;28;20422;-82
2023/01/30 05:04:49;;;;;;;0.70;0.70;;;;;;;-4.46;92.93;98004.34;5032758;28;20506;-82
2023/01/30 05:07:17;;;;;;;0.82;0.82;;;;;;;-4.45;92.80;97986.75;5032254;28;20473;-82
2023/01/30 05:09:44;;;;;;;0.80;0.80;;;;;;;-4.46;93.00;97990.38;5033414;28;20451;-84
2023/01/30 05:12:11;;;;;;;0.70;0.70;;;;;;;-4.47;92.64;97979.03;5013818;28;20053;-82
2023/01/30 05:14:40;;;;;;;0.80;0.80;;;;;;;-4.41;92.92;97986.22;5031672;28;20049;-81
2023/01/30 05:17:07;;;;;;;0.75;0.75;;;;;;;-4.43;92.65;97976.84;5031379;28;20095;-82
2023/01/30 05:19:34;;;;;;;1.10;1.10;;;;;;;-4.44;92.51;97959.41;5031119;28;20045;-81
2023/01/30 05:22:04;;;;;;;0.88;0.88;;;;;;;-4.47;92.73;97968.47;5031571;28;20051;-83
2023/01/30 05:24:31;;;;;;;0.57;0.57;;;;;;;-4.45;92.78;97963.06;5031624;28;20045;-81
2023/01/30 05:26:58;;;;;;;0.57;0.57;;;;;;;-4.46;92.84;97962.22;5013833;28;20049;-82
2023/01/30 05:29:25;;;;;;;0.68;0.68;;;;;;;-4.46;92.57;97954.31;5031850;28;20420;-82
2023/01/30 05:31:52;;;;;;;0.70;0.70;;;;;;;-4.47;92.60;97947.41;5031014;28;20456;-81
2023/01/30 05:34:21;;;;;;;0.90;0.90;;;;;;;-4.46;92.75;97946.41;5013349;28;20045;-82
2023/01/30 05:36:48;;;;;;;0.90;0.90;;;;;;;-4.48;92.75;97943.16;4997224;28;20045;-81
2023/01/30 05:39:18;;;;;;;0.70;0.70;;;;;;;-4.45;92.68;97948.06;5030808;28;20045;-82
2023/01/30 05:41:48;;;;;;;0.57;0.57;;;;;;;-4.43;93.02;97940.81;5013131;28;20057;-81
2023/01/30 05:44:15;;;;;;;0.70;0.70;;;;;;;-4.39;92.97;97939.44;5030984;28;20053;-81
2023/01/30 05:46:45;;;;;;;0.68;0.68;;;;;;;-4.37;92.37;97936.66;5031303;28;20467;-81
2023/01/30 05:49:15;;;;;;;0.80;0.80;;;;;;;-4.44;92.46;97939.16;5030920;28;20504;-82
2023/01/30 05:51:42;;;;;;;0.80;0.80;;;;;;;-4.44;92.54;97928.63;5030767;28;20080;-82
2023/01/30 05:54:09;;;;;;;0.82;0.82;;;;;;;-4.48;92.76;97929.97;5031097;28;20446;-82
2023/01/30 05:56:36;;;;;;;0.80;0.80;;;;;;;-4.44;92.82;97922.53;5013275;28;20408;-82
2023/01/30 05:59:03;;;;;;;1.00;1.00;;;;;;;-4.39;92.74;97928.09;5031245;28;20444;-83
2023/01/30 06:01:31;;;;;;;0.70;0.70;;;;;;;-4.41;92.94;97917.72;5036875;28;20504;-83
2023/01/30 06:03:58;;;;;;;0.75;0.75;;;;;;;-4.42;92.80;97905.56;5037570;28;20045;-82
2023/01/30 06:06:25;;;;;;;0.77;0.77;;;;;;;-4.43;92.94;97908.38;5035847;28;20090;-82
2023/01/30 06:08:55;;;;;;;1.00;1.00;;;;;;;-4.48;92.85;97901.03;5030770;28;20532;-82
2023/01/30 06:11:23;;;;;;;0.90;0.90;;;;;;;-4.39;92.90;97905.22;5012838;28;20107;-81
2023/01/30 06:13:50;;;;;;;0.90;0.90;;;;;;;-4.35;92.90;97918.88;5030304;28;20060;-82
2023/01/30 06:16:17;;;;;;;0.70;0.70;;;;;;;-4.37;93.20;97923.47;5012224;28;20080;-83
2023/01/30 06:18:46;;;;;;;0.80;0.80;;;;;;;-4.37;93.21;97905.84;5026030;28;20053;-81
2023/01/30 06:21:16;;;;;;;0.70;0.70;;;;;;;-4.38;93.26;97903.38;5017304;28;20046;-82
2023/01/30 06:23:56;;;;;;;0.60;0.60;;;;;;;-4.42;93.30;97910.84;5012961;28;20077;-83
2023/01/30 06:26:24;;;;;;;0.70;0.70;;;;;;;-4.41;93.59;97899.28;5009889;28;20061;-83
2023/01/30 06:28:51;;;;;;;0.77;0.77;;;;;;;-4.39;93.72;97910.47;5007864;28;20041;-82
2023/01/30 06:31:18;;;;;;;0.80;0.80;;;;;;;-4.36;93.69;97904.03;4645910;28;10000401;-82
2023/01/30 06:33:48;;;;;;;0.70;0.70;;;;;;;-4.33;93.80;97914.22;4993913;28;20068;-82
2023/01/30 06:36:15;;;;;;;0.70;0.70;;;;;;;-4.36;93.75;97894.31;5015331;28;20049;-83
2023/01/30 06:38:43;;;;;;;0.65;0.65;;;;;;;-4.34;93.86;97904.69;4981677;28;20045;-82
2023/01/30 06:41:10;;;;;;;0.70;0.70;;;;;;;-4.33;93.95;97898.41;5007231;28;20061;-82
2023/01/30 06:43:37;;;;;;;0.88;0.88;;;;;;;-4.34;94.14;97888.88;5011246;28;20621;-81
2023/01/30 06:46:04;;;;;;;0.80;0.80;;;;;;;-4.33;94.05;97897.59;5018812;28;20052;-81
2023/01/30 06:48:31;;;;;;;1.08;1.08;;;;;;;-4.24;93.90;97884.19;5006896;28;20049;-81
2023/01/30 06:50:58;;;;;;;0.80;0.80;;;;;;;-4.30;94.04;97887.53;5010050;28;20049;-82
2023/01/30 06:53:29;;;;;;;0.88;0.88;;;;;;;-4.26;94.01;97898.53;5009358;28;20069;-81
2023/01/30 06:55:57;;;;;;;0.70;0.70;;;;;;;-4.29;94.00;97893.63;5009103;28;20056;-81
2023/01/30 06:58:25;;;;;;;0.93;0.93;;;;;;;-4.27;93.88;97897.72;5015720;28;20045;-84
2023/01/30 07:00:56;;;;;;;0.82;0.82;;;;;;;-4.26;93.78;97890.63;5010647;28;20104;-82
2023/01/30 07:03:27;;;;;;;0.60;0.60;;;;;;;-4.25;93.91;97894.91;5004484;28;20065;-83
2023/01/30 07:05:56;;;;;;;0.80;0.80;;;;;;;-4.23;93.98;97882.38;5009545;28;20111;-84
2023/01/30 07:08:23;;;;;;;0.70;0.70;;;;;;;-4.22;94.08;97886.66;5007458;28;20509;-83
2023/01/30 07:10:52;;;;;;;0.68;0.68;;;;;;;-4.16;93.86;97891.19;5012626;28;20046;-83
2023/01/30 07:13:20;;;;;;;1.00;1.00;;;;;;;-4.14;93.77;97870.78;5011889;28;20052;-85
2023/01/30 07:15:48;;;;;;;0.70;0.70;;;;;;;-4.15;93.51;97869.16;5006887;28;20225;-83
2023/01/30 07:18:19;;;;;;;0.70;0.70;;;;;;;-4.12;93.69;97883.78;4997199;28;20804;-83
2023/01/30 07:20:47;;;;;;;0.90;0.90;;;;;;;-4.07;93.71;97871.69;4983810;28;20049;-84
2023/01/30 07:23:14;;;;;;;0.60;0.60;;;;;;;-4.11;93.34;97869.59;5000364;28;20459;-84
2023/01/30 07:25:41;;;;;;;0.70;0.70;;;;;;;-4.11;93.25;97867.78;4992217;28;20069;-84
2023/01/30 07:28:09;;;;;;;0.80;0.80;;;;;;;-4.12;93.46;97860.88;5005973;28;20153;-83
2023/01/30 07:30:36;;;;;;;0.88;0.88;;;;;;;-4.06;93.37;97865.41;5013305;28;20136;-83
2023/01/30 07:33:04;;;;;;;0.70;0.70;;;;;;;-4.08;93.18;97853.41;5012287;28;20516;-84
2023/01/30 07:35:34;;;;;;;0.80;0.80;;;;;;;-4.04;93.56;97860.78;4997087;28;20057;-84
2023/01/30 07:38:02;;;;;;;0.80;0.80;;;;;;;-4.05;93.40;97853.06;4992209;28;20060;-84
2023/01/30 07:40:29;;;;;;;0.70;0.70;;;;;;;-4.00;93.30;97853.31;5004798;28;20140;-84
2023/01/30 07:43:02;;;;;;;0.98;0.98;;;;;;;-3.97;93.10;97838.00;5001019;28;20569;-83
2023/01/30 07:45:50;;;;;;;0.68;0.68;;;;;;;-4.00;92.97;97846.25;4994309;28;20068;-83
2023/01/30 07:48:18;;;;;;;0.70;0.70;;;;;;;-3.96;93.09;97847.53;5017622;28;20103;-82
2023/01/30 07:50:45;;;;;;;0.80;0.80;;;;;;;-3.96;92.85;97846.72;5021458;28;20060;-83
2023/01/30 07:53:15;;;;;;;0.70;0.70;;;;;;;-3.94;92.89;97850.81;4992894;28;20581;-83
2023/01/30 07:55:43;;;;;;;0.80;0.80;;;;;;;-3.91;93.04;97828.53;4992854;28;20130;-83
2023/01/30 07:58:13;;;;;;;0.70;0.70;;;;;;;-3.90;92.70;97832.78;5010315;28;20065;-83
2023/01/30 08:00:40;;;;;;;0.73;0.73;;;;;;;-3.92;92.71;97814.53;5003861;28;20049;-83
2023/01/30 08:03:14;;;;;;;0.70;0.70;;;;;;;-3.81;92.36;97838.81;5009808;28;20517;-83
2023/01/30 08:05:46;;;;;;;0.73;0.73;;;;;;;-3.78;92.45;97825.25;5010616;28;20049;-83
2023/01/30 08:08:14;;;;;;;0.90;0.90;;;;;;;-3.79;92.08;97831.56;5013483;28;20064;-82
2023/01/30 08:10:47;;;;;;;0.75;0.75;;;;;;;-3.80;91.98;97822.81;5023009;28;20132;-82
2023/01/30 08:13:14;;;;;;;0.80;0.80;;;;;;;-3.79;92.11;97816.53;5003453;28;20083;-82
2023/01/30 08:15:42;;;;;;;0.90;0.90;;;;;;;-3.73;92.02;97818.44;5009253;28;20050;-83
2023/01/30 08:18:10;;;;;;;0.82;0.82;;;;;;;-3.74;91.61;97813.38;5015229;28;20576;-82
2023/01/30 08:20:41;;;;;;;0.77;0.77;;;;;;;-3.69;91.62;97804.91;5009627;28;20514;-81
2023/01/30 08:23:08;;;;;;;0.80;0.80;;;;;;;-3.72;91.24;97800.81;5009798;28;20065;-81
2023/01/30 08:25:36;;;;;;;0.60;0.60;;;;;;;-3.73;91.70;97801.81;5009605;28;20073;-82
2023/01/30 08:28:04;;;;;;;0.77;0.77;;;;;;;-3.66;91.75;97800.06;5013385;28;20058;-82
2023/01/30 08:30:31;;;;;;;0.60;0.60;;;;;;;-3.57;91.91;97798.16;5013251;28;20045;-83
2023/01/30 08:32:59;;;;;;;0.80;0.80;;;;;;;-3.68;91.54;97788.09;5018076;28;20429;-82
2023/01/30 08:35:26;;;;;;;0.82;0.82;;;;;;;-3.63;91.28;97791.78;5016051;28;20104;-83
2023/01/30 08:37:54;;;;;;;0.60;0.60;;;;;;;-3.65;91.70;97788.53;5022279;28;20077;-81
2023/01/30 08:40:23;;;;;;;0.80;0.80;;;;;;;-3.60;91.38;97769.50;5020671;28;20050;-84
2023/01/30 08:42:50;;;;;;;0.82;0.82;;;;;;;-3.59;91.37;97785.16;5023892;28;20443;-82
2023/01/30 08:45:17;;;;;;;1.00;1.00;;;;;;;-3.55;91.64;97786.41;5013519;28;20145;-81
2023/01/30 08:47:44;;;;;;;0.77;0.77;;;;;;;-3.51;91.61;97790.31;5013195;28;20076;-82
2023/01/30 08:50:14;;;;;;;0.90;0.90;;;;;;;-3.47;91.59;97777.56;5024083;28;20053;-81
2023/01/30 08:52:41;;;;;;;0.77;0.77;;;;;;;-3.49;91.37;97772.50;5005882;28;20091;-82
2023/01/30 08:55:08;;;;;;;0.90;0.90;;;;;;;-3.43;91.17;97767.50;5000021;28;20052;-82
2023/01/30 08:57:41;;;;;;;0.90;0.90;;;;;;;-3.45;91.17;97754.47;4997403;28;20056;-82
2023/01/30 09:00:11;;;;;;;0.57;0.57;;;;;;;-3.38;91.02;97765.13;5020263;28;20568;-81
2023/01/30 09:02:40;;;;;;;0.80;0.80;;;;;;;-3.31;91.11;97755.44;5008713;28;20081;-83
2023/01/30 09:05:09;;;;;;;0.80;0.80;;;;;;;-3.24;90.80;97751.06;5013179;28;20057;-82
2023/01/30 09:07:38;;;;;;;0.85;0.85;;;;;;;-3.23;90.40;97747.41;5025982;28;20049;-82
2023/01/30 09:10:06;;;;;;;0.95;0.95;;;;;;;-3.25;89.88;97741.50;5018478;28;20056;-84
2023/01/30 09:12:34;;;;;;;0.90;0.90;;;;;;;-3.25;90.23;97744.13;5011307;28;20049;-83
2023/01/30 09:15:01;;;;;;;0.60;0.60;;;;;;;-3.25;90.54;97725.66;5012803;28;20045;-83
2023/01/30 09:17:30;;;;;;;0.70;0.70;;;;;;;-3.24;90.00;97723.84;4989252;28;20104;-83
2023/01/30 09:19:57;;;;;;;0.80;0.80;;;;;;;-3.30;89.76;97722.78;5008872;28;20555;-82
2023/01/30 09:22:30;;;;;;;0.73;0.73;;;;;;;-3.30;90.01;97718.31;5008372;28;20116;-82
2023/01/30 09:24:58;;;;;;;1.00;1.00;;;;;;;-3.28;90.53;97728.69;4999132;28;20038;-83
2023/01/30 09:27:26;;;;;;;0.90;0.90;;;;;;;-3.30;90.36;97722.78;5014702;28;20534;-83
2023/01/30 09:29:56;;;;;;;0.80;0.80;;;;;;;-3.25;90.50;97712.47;5018407;28;20049;-81
2023/01/30 09:32:23;;;;;;;0.85;0.85;;;;;;;-3.19;90.24;97714.38;5028016;28;20058;-82
2023/01/30 09:34:50;;;;;;;0.90;0.90;;;;;;;-3.15;90.32;97702.41;5024646;28;20512;-82
2023/01/30 09:37:17;;;;;;;0.70;0.70;;;;;;;-3.08;90.15;97705.94;5025936;28;20041;-83
2023/01/30 09:39:45;;;;;;;0.60;0.60;;;;;;;-3.11;89.59;97708.16;5028081;28;20053;-82
2023/01/30 09:42:39;;;;;;;0.85;0.85;;;;;;;-3.13;89.40;97703.06;5018537;28;20054;-82
2023/01/30 09:45:19;;;;;;;0.80;0.80;;;;;;;-3.09;89.38;97691.13;5017238;28;20157;-80
2023/01/30 09:47:53;;;;;;;1.00;1.00;;;;;;;-3.06;89.16;97695.22;5013329;28;20055;-81
2023/01/30 09:50:20;;;;;;;1.15;1.13;;;;;;;-3.05;88.96;97691.53;5011179;28;20080;-82
2023/01/30 09:53:05;;;;;;;0.90;0.90;;;;;;;-3.08;89.04;97670.81;5027190;28;20057;-81
2023/01/30 09:55:36;;;;;;;1.05;1.05;;;;;;;-3.10;88.62;97675.47;5007057;28;20045;-81
2023/01/30 09:58:06;;;;;;;0.85;0.85;;;;;;;-3.18;88.93;97647.38;5026817;28;20042;-82
2023/01/30 10:00:38;;;;;;;0.93;0.93;;;;;;;-3.16;88.97;97655.94;5014917;28;20056;-82
2023/01/30 10:03:10;;;;;;;0.77;0.77;;;;;;;-3.06;89.09;97652.97;4992106;28;20052;-82
2023/01/30 10:05:50;;;;;;;1.00;1.00;;;;;;;-3.00;88.90;97654.03;5009028;28;20041;-82
2023/01/30 10:08:32;;;;;;;0.88;0.88;;;;;;;-2.97;88.84;97645.72;4990552;28;20053;-82
2023/01/30 10:11:39;;;;;;;0.60;0.60;;;;;;;-3.02;88.39;97638.38;5018603;28;20053;-82
2023/01/30 10:14:23;;;;;;;1.00;1.00;;;;;;;-2.95;88.20;97649.81;5001443;28;20493;-80
2023/01/30 10:17:18;;;;;;;0.88;0.88;;;;;;;-2.89;88.21;97637.66;5009267;28;20096;-81
2023/01/30 10:20:15;;;;;;;1.00;1.00;;;;;;;-2.90;87.71;97636.03;5007198;28;20102;-81
2023/01/30 10:23:21;;;;;;;0.70;0.70;;;;;;;-2.93;88.06;97637.22;4957166;28;20047;-83
2023/01/30 10:25:57;;;;;;;0.70;0.70;;;;;;;-2.82;88.37;97635.88;4947491;28;20055;-88
2023/01/30 10:28:28;;;;;;;0.70;0.70;;;;;;;-2.79;88.14;97626.75;4952506;28;20515;-82
2023/01/30 10:31:15;;;;;;;0.70;0.70;;;;;;;-2.83;87.65;97605.22;4952141;28;20063;-83
2023/01/30 10:33:44;;;;;;;0.80;0.80;;;;;;;-2.81;87.40;97620.84;4934168;28;20083;-84
2023/01/30 10:36:20;;;;;;;0.57;0.57;;;;;;;-2.78;87.65;97618.66;4973924;28;20049;-83
2023/01/30 10:38:51;;;;;;;0.73;0.73;;;;;;;-2.75;87.47;97607.69;4953523;28;20051;-84
2023/01/30 10:41:23;;;;;;;0.95;0.95;;;;;;;-2.73;87.10;97608.31;4950239;28;20047;-84
2023/01/30 10:44:06;;;;;;;1.00;1.00;;;;;;;-2.81;86.88;97610.28;4949909;29;20063;-84
2023/01/30 10:46:56;;;;;;;0.73;0.73;;;;;;;-2.84;87.11;97601.75;4959731;28;20145;-84
2023/01/30 10:49:59;;;;;;;0.70;0.70;;;;;;;-2.83;87.39;97600.75;4968285;28;20055;-84
2023/01/30 10:52:40;;;;;;;0.70;0.70;;;;;;;-2.77;87.66;97607.06;4968912;28;20066;-84
2023/01/30 10:55:16;;;;;;;0.82;0.82;;;;;;;-2.70;87.47;97581.53;4952135;28;20051;-84
2023/01/30 10:58:12;;;;;;;0.75;0.75;;;;;;;-2.66;87.05;97579.28;4936784;28;20873;-83
2023/01/30 11:01:02;;;;;;;1.00;1.00;;;;;;;-2.64;87.15;97583.38;5017791;28;20058;-84
2023/01/30 11:03:41;;;;;;;0.77;0.77;;;;;;;-2.63;87.07;97582.38;5010141;28;20061;-84
2023/01/30 11:06:15;;;;;;;0.95;0.95;;;;;;;-2.67;86.75;97567.91;4997630;28;20088;-84
2023/01/30 11:08:43;;;;;;;0.90;0.90;;;;;;;-2.70;86.87;97575.44;5005381;28;20448;-85
2023/01/30 11:11:27;;;;;;;1.02;1.02;;;;;;;-2.67;86.71;97575.84;5019111;28;20085;-85
2023/01/30 11:14:10;;;;;;;0.75;0.75;;;;;;;-2.72;87.14;97588.00;5030222;28;20054;-84
2023/01/30 11:16:45;;;;;;;0.77;0.77;;;;;;;-2.73;87.54;97558.16;5029424;28;20046;-84
2023/01/30 11:19:14;;;;;;;0.90;0.90;;;;;;;-2.78;87.58;97557.91;5024135;28;20104;-84
2023/01/30 11:22:00;;;;;;;0.90;0.90;;;;;;;-2.66;87.86;97564.28;5013199;28;20050;-86
2023/01/30 11:24:44;;;;;;;0.70;0.70;;;;;;;-2.60;87.91;97556.59;5017141;28;20053;-84
2023/01/30 11:27:23;;;;;;;0.88;0.88;;;;;;;-2.66;88.22;97551.09;5029583;28;20045;-88
2023/01/30 11:30:12;;;;;;;0.98;0.98;;;;;;;-2.60;88.56;97549.47;5025949;28;20050;-85
2023/01/30 11:32:43;;;;;;;1.02;1.02;;;;;;;-2.70;88.73;97512.84;5022052;28;20060;-83
2023/01/30 11:35:13;;;;;;;1.00;1.00;;;;;;;-2.60;89.12;97525.69;4984980;28;20046;-82
2023/01/30 11:37:42;;;;;;;1.00;1.00;;;;;;;-2.58;89.27;97528.13;5023731;28;20077;-83
2023/01/30 11:40:15;;;;;;;1.00;1.00;;;;;;;-2.56;89.67;97528.75;5001585;28;20054;-82
2023/01/30 11:42:45;;;;;;;0.98;0.98;;;;;;;-2.55;89.74;97538.31;5027703;28;20528;-83
2023/01/30 11:45:13;;;;;;;1.00;1.00;;;;;;;-2.53;90.11;97536.28;5031149;28;20530;-82
2023/01/30 11:47:54;;;;;;;1.00;1.00;;;;;;;-2.57;89.92;97540.34;5032480;28;20053;-84
2023/01/30 11:50:40;;;;;;;1.00;1.00;;;;;;;-2.66;89.88;97516.75;4982086;28;20112;-85
2023/01/30 11:53:28;;;;;;;1.35;1.25;;;;;;;-2.70;90.50;97526.06;5013633;28;20091;-86
2023/01/30 11:56:03;;;;;;;0.93;0.93;;;;;;;-2.64;90.65;97535.81;5015879;28;20136;-84
2023/01/30 11:58:37;;;;;;;0.98;0.98;;;;;;;-2.63;90.67;97511.06;5037499;28;20421;-84
2023/01/30 12:01:07;;;;;;;0.95;0.95;;;;;;;-2.62;90.56;97515.31;5042126;28;20132;-84
2023/01/30 12:03:44;;;;;;;1.02;1.02;;;;;;;-2.59;90.79;97523.88;5015460;28;20216;-84